CheckWX is a tool to help pilots better visualize weather data.  It is not intended as a substitute for an official pre-flight weather briefing.

01:54:54 UTC

KBFL TAF
Meadows Field Airport
Bakersfield, California, USA
KBFL 182322Z 1900/1924 VRB03KT P6SM BKN200 FM192000 28010G21KT P6SM OVC250

Mar-19@
00:00 UTC

Mar-19 @ 00:00 UTC

Mar-19@
20:00 UTC

Mar-19 @ 20:00 UTC

KBFL 182322Z 1900/1924 VRB03KT P6SM BKN200
Wind
  • Variable at 3 KTS
Cloud Levels
  • Broken at 20,000' AGL

Mar-19@
20:00 UTC

Mar-19 @ 20:00 UTC

Mar-20@
00:00 UTC

Mar-20 @ 00:00 UTC

FM192000 28010G21KT P6SM OVC250

From

From Standard forecast or significant change

Wind
  • 280° at 10 KTS
  • {Gusting to 21 KTS
Cloud Levels
  • Overcast at 25,000' AGL